sensor_id;sensor_type;location;lat;lon;timestamp;P1;durP1;ratioP1;P2;durP2;ratioP2
7587;SDS011;3835;48.850;8.938;2022-08-11T00:00:57;11.07;;;10.67;;
7587;SDS011;3835;48.850;8.938;2022-08-11T00:03:25;11.60;;;11.10;;
7587;SDS011;3835;48.850;8.938;2022-08-11T00:05:53;12.77;;;12.27;;
7587;SDS011;3835;48.850;8.938;2022-08-11T00:08:24;11.77;;;11.30;;
7587;SDS011;3835;48.850;8.938;2022-08-11T00:10:53;10.70;;;10.30;;
7587;SDS011;3835;48.850;8.938;2022-08-11T00:13:22;13.97;;;13.40;;
7587;SDS011;3835;48.850;8.938;2022-08-11T00:15:57;12.13;;;11.63;;
7587;SDS011;3835;48.850;8.938;2022-08-11T00:18:25;12.83;;;12.23;;
7587;SDS011;3835;48.850;8.938;2022-08-11T00:20:52;13.13;;;12.63;;
7587;SDS011;3835;48.850;8.938;2022-08-11T00:23:25;13.20;;;12.70;;
7587;SDS011;3835;48.850;8.938;2022-08-11T00:25:52;12.30;;;11.80;;
7587;SDS011;3835;48.850;8.938;2022-08-11T00:28:24;12.73;;;12.23;;
7587;SDS011;3835;48.850;8.938;2022-08-11T00:30:52;13.77;;;13.27;;
7587;SDS011;3835;48.850;8.938;2022-08-11T00:33:21;15.73;;;15.13;;
7587;SDS011;3835;48.850;8.938;2022-08-11T00:35:51;15.87;;;14.93;;
7587;SDS011;3835;48.850;8.938;2022-08-11T00:38:33;14.97;;;14.37;;
7587;SDS011;3835;48.850;8.938;2022-08-11T00:41:10;14.40;;;13.80;;
7587;SDS011;3835;48.850;8.938;2022-08-11T00:43:58;13.87;;;13.27;;
7587;SDS011;3835;48.850;8.938;2022-08-11T00:46:39;14.90;;;14.30;;
7587;SDS011;3835;48.850;8.938;2022-08-11T00:49:17;12.60;;;12.10;;
7587;SDS011;3835;48.850;8.938;2022-08-11T00:51:59;12.60;;;12.10;;
7587;SDS011;3835;48.850;8.938;2022-08-11T01:01:09;11.97;;;11.47;;
7587;SDS011;3835;48.850;8.938;2022-08-11T01:03:55;12.23;;;11.73;;
7587;SDS011;3835;48.850;8.938;2022-08-11T01:09:58;11.50;;;11.10;;
7587;SDS011;3835;48.850;8.938;2022-08-11T01:12:42;12.27;;;11.77;;
7587;SDS011;3835;48.850;8.938;2022-08-11T01:21:25;13.27;;;12.77;;
7587;SDS011;3835;48.850;8.938;2022-08-11T01:24:29;11.47;;;10.97;;
7587;SDS011;3835;48.850;8.938;2022-08-11T01:27:51;12.80;;;12.30;;
7587;SDS011;3835;48.850;8.938;2022-08-11T01:30:58;11.47;;;10.97;;
7587;SDS011;3835;48.850;8.938;2022-08-11T01:33:56;11.37;;;10.93;;
7587;SDS011;3835;48.850;8.938;2022-08-11T01:37:07;12.43;;;11.93;;
7587;SDS011;3835;48.850;8.938;2022-08-11T01:43:03;11.27;;;10.77;;
7587;SDS011;3835;48.850;8.938;2022-08-11T01:46:14;11.80;;;11.30;;
7587;SDS011;3835;48.850;8.938;2022-08-11T01:48:49;10.80;;;10.40;;
7587;SDS011;3835;48.850;8.938;2022-08-11T01:51:30;11.77;;;11.27;;
7587;SDS011;3835;48.850;8.938;2022-08-11T01:54:16;10.70;;;10.30;;
7587;SDS011;3835;48.850;8.938;2022-08-11T01:56:52;10.87;;;10.47;;
7587;SDS011;3835;48.850;8.938;2022-08-11T01:59:34;10.53;;;10.07;;
7587;SDS011;3835;48.850;8.938;2022-08-11T02:05:21;12.67;;;12.17;;
7587;SDS011;3835;48.850;8.938;2022-08-11T02:07:54;13.60;;;13.03;;
7587;SDS011;3835;48.850;8.938;2022-08-11T02:10:29;10.07;;;9.67;;
7587;SDS011;3835;48.850;8.938;2022-08-11T02:13:23;12.00;;;11.50;;
7587;SDS011;3835;48.850;8.938;2022-08-11T02:16:04;12.20;;;11.70;;
7587;SDS011;3835;48.850;8.938;2022-08-11T02:18:39;12.10;;;11.50;;
7587;SDS011;3835;48.850;8.938;2022-08-11T02:21:35;12.07;;;11.57;;
7587;SDS011;3835;48.850;8.938;2022-08-11T02:24:25;11.33;;;10.93;;
7587;SDS011;3835;48.850;8.938;2022-08-11T02:26:59;12.93;;;12.30;;
7587;SDS011;3835;48.850;8.938;2022-08-11T02:29:31;14.87;;;14.27;;
7587;SDS011;3835;48.850;8.938;2022-08-11T02:32:04;10.17;;;9.77;;
7587;SDS011;3835;48.850;8.938;2022-08-11T02:35:09;12.90;;;12.30;;
7587;SDS011;3835;48.850;8.938;2022-08-11T02:37:41;12.60;;;12.10;;
7587;SDS011;3835;48.850;8.938;2022-08-11T02:40:23;13.40;;;12.80;;
7587;SDS011;3835;48.850;8.938;2022-08-11T02:43:06;12.23;;;11.73;;
7587;SDS011;3835;48.850;8.938;2022-08-11T02:45:42;11.50;;;11.07;;
7587;SDS011;3835;48.850;8.938;2022-08-11T02:48:20;10.50;;;10.10;;
7587;SDS011;3835;48.850;8.938;2022-08-11T02:51:16;15.53;;;14.93;;
7587;SDS011;3835;48.850;8.938;2022-08-11T02:53:53;12.53;;;12.03;;
7587;SDS011;3835;48.850;8.938;2022-08-11T02:56:30;12.67;;;12.17;;
7587;SDS011;3835;48.850;8.938;2022-08-11T02:59:13;13.03;;;12.43;;
7587;SDS011;3835;48.850;8.938;2022-08-11T03:02:10;13.70;;;13.20;;
7587;SDS011;3835;48.850;8.938;2022-08-11T03:04:48;11.23;;;10.83;;
7587;SDS011;3835;48.850;8.938;2022-08-11T03:07:27;11.80;;;11.30;;
7587;SDS011;3835;48.850;8.938;2022-08-11T03:09:59;11.53;;;11.03;;
7587;SDS011;3835;48.850;8.938;2022-08-11T03:12:35;15.47;;;14.87;;
7587;SDS011;3835;48.850;8.938;2022-08-11T03:15:29;12.30;;;11.80;;
7587;SDS011;3835;48.850;8.938;2022-08-11T03:18:24;12.53;;;12.03;;
7587;SDS011;3835;48.850;8.938;2022-08-11T03:20:58;12.30;;;11.80;;
7587;SDS011;3835;48.850;8.938;2022-08-11T03:23:46;11.30;;;10.90;;
7587;SDS011;3835;48.850;8.938;2022-08-11T03:26:22;13.47;;;12.97;;
7587;SDS011;3835;48.850;8.938;2022-08-11T03:28:58;13.73;;;13.23;;
7587;SDS011;3835;48.850;8.938;2022-08-11T03:31:33;13.37;;;12.87;;
7587;SDS011;3835;48.850;8.938;2022-08-11T03:34:08;11.53;;;11.13;;
7587;SDS011;3835;48.850;8.938;2022-08-11T03:39:32;14.13;;;13.53;;
7587;SDS011;3835;48.850;8.938;2022-08-11T03:42:15;11.30;;;10.80;;
7587;SDS011;3835;48.850;8.938;2022-08-11T03:44:58;11.27;;;10.77;;
7587;SDS011;3835;48.850;8.938;2022-08-11T03:47:40;11.53;;;11.03;;
7587;SDS011;3835;48.850;8.938;2022-08-11T03:50:15;11.27;;;10.67;;
7587;SDS011;3835;48.850;8.938;2022-08-11T03:52:57;14.27;;;13.67;;
7587;SDS011;3835;48.850;8.938;2022-08-11T03:55:40;16.03;;;15.43;;
7587;SDS011;3835;48.850;8.938;2022-08-11T03:58:32;14.30;;;13.70;;
7587;SDS011;3835;48.850;8.938;2022-08-11T04:04:29;12.80;;;12.30;;
7587;SDS011;3835;48.850;8.938;2022-08-11T04:07:46;13.83;;;13.27;;
7587;SDS011;3835;48.850;8.938;2022-08-11T04:10:58;13.10;;;12.60;;
7587;SDS011;3835;48.850;8.938;2022-08-11T04:14:03;12.67;;;12.17;;
7587;SDS011;3835;48.850;8.938;2022-08-11T04:17:14;13.13;;;12.63;;
7587;SDS011;3835;48.850;8.938;2022-08-11T04:25:23;12.27;;;11.77;;
7587;SDS011;3835;48.850;8.938;2022-08-11T04:33:51;18.83;;;18.03;;
7587;SDS011;3835;48.850;8.938;2022-08-11T04:39:46;18.80;;;18.00;;
7587;SDS011;3835;48.850;8.938;2022-08-11T04:42:39;17.30;;;16.50;;
7587;SDS011;3835;48.850;8.938;2022-08-11T04:45:51;13.07;;;12.37;;
7587;SDS011;3835;48.850;8.938;2022-08-11T04:48:46;13.93;;;13.33;;
7587;SDS011;3835;48.850;8.938;2022-08-11T04:51:55;11.00;;;10.60;;
7587;SDS011;3835;48.850;8.938;2022-08-11T04:54:52;10.57;;;10.17;;
7587;SDS011;3835;48.850;8.938;2022-08-11T04:57:52;11.40;;;11.00;;
7587;SDS011;3835;48.850;8.938;2022-08-11T05:00:50;12.23;;;11.60;;
7587;SDS011;3835;48.850;8.938;2022-08-11T05:04:04;10.93;;;10.50;;
7587;SDS011;3835;48.850;8.938;2022-08-11T05:07:19;15.87;;;15.10;;
7587;SDS011;3835;48.850;8.938;2022-08-11T05:10:26;11.20;;;10.77;;
7587;SDS011;3835;48.850;8.938;2022-08-11T05:13:08;12.37;;;11.77;;
7587;SDS011;3835;48.850;8.938;2022-08-11T05:16:07;14.60;;;13.90;;
7587;SDS011;3835;48.850;8.938;2022-08-11T05:18:53;13.80;;;13.27;;
7587;SDS011;3835;48.850;8.938;2022-08-11T05:21:38;16.47;;;15.80;;
7587;SDS011;3835;48.850;8.938;2022-08-11T05:24:29;18.50;;;17.70;;
7587;SDS011;3835;48.850;8.938;2022-08-11T05:27:17;14.13;;;13.33;;
7587;SDS011;3835;48.850;8.938;2022-08-11T05:30:03;12.70;;;12.20;;
7587;SDS011;3835;48.850;8.938;2022-08-11T05:32:53;12.23;;;11.73;;
7587;SDS011;3835;48.850;8.938;2022-08-11T05:35:42;12.67;;;12.17;;
7587;SDS011;3835;48.850;8.938;2022-08-11T05:38:15;11.73;;;11.30;;
7587;SDS011;3835;48.850;8.938;2022-08-11T05:41:06;11.23;;;10.80;;
7587;SDS011;3835;48.850;8.938;2022-08-11T05:43:54;14.20;;;13.60;;
7587;SDS011;3835;48.850;8.938;2022-08-11T05:46:41;15.53;;;14.93;;
7587;SDS011;3835;48.850;8.938;2022-08-11T05:49:28;12.90;;;12.40;;
7587;SDS011;3835;48.850;8.938;2022-08-11T05:52:14;13.17;;;12.67;;
7587;SDS011;3835;48.850;8.938;2022-08-11T05:55:01;10.53;;;10.10;;
7587;SDS011;3835;48.850;8.938;2022-08-11T05:57:50;12.67;;;12.13;;
7587;SDS011;3835;48.850;8.938;2022-08-11T06:00:21;12.93;;;12.43;;
7587;SDS011;3835;48.850;8.938;2022-08-11T06:02:50;12.13;;;11.63;;
7587;SDS011;3835;48.850;8.938;2022-08-11T06:05:19;13.20;;;12.60;;
7587;SDS011;3835;48.850;8.938;2022-08-11T06:07:46;13.37;;;12.77;;
7587;SDS011;3835;48.850;8.938;2022-08-11T06:10:23;11.23;;;10.73;;
7587;SDS011;3835;48.850;8.938;2022-08-11T06:12:53;12.23;;;11.73;;
7587;SDS011;3835;48.850;8.938;2022-08-11T06:15:22;12.80;;;12.23;;
7587;SDS011;3835;48.850;8.938;2022-08-11T06:17:51;11.00;;;10.53;;
7587;SDS011;3835;48.850;8.938;2022-08-11T06:20:20;13.90;;;13.30;;
7587;SDS011;3835;48.850;8.938;2022-08-11T06:22:54;10.33;;;9.93;;
7587;SDS011;3835;48.850;8.938;2022-08-11T06:25:22;11.87;;;11.37;;
7587;SDS011;3835;48.850;8.938;2022-08-11T06:27:57;10.67;;;10.27;;
7587;SDS011;3835;48.850;8.938;2022-08-11T06:30:32;11.07;;;10.57;;
7587;SDS011;3835;48.850;8.938;2022-08-11T06:33:03;12.30;;;11.57;;
7587;SDS011;3835;48.850;8.938;2022-08-11T06:35:35;12.43;;;11.83;;
7587;SDS011;3835;48.850;8.938;2022-08-11T06:38:13;13.83;;;13.23;;
7587;SDS011;3835;48.850;8.938;2022-08-11T06:40:48;13.57;;;13.03;;
7587;SDS011;3835;48.850;8.938;2022-08-11T06:43:36;11.93;;;11.43;;
7587;SDS011;3835;48.850;8.938;2022-08-11T06:46:12;12.80;;;12.20;;
7587;SDS011;3835;48.850;8.938;2022-08-11T06:48:42;13.80;;;13.10;;
7587;SDS011;3835;48.850;8.938;2022-08-11T06:51:11;11.33;;;10.90;;
7587;SDS011;3835;48.850;8.938;2022-08-11T06:53:38;11.07;;;10.60;;
7587;SDS011;3835;48.850;8.938;2022-08-11T06:56:08;11.67;;;11.17;;
7587;SDS011;3835;48.850;8.938;2022-08-11T06:58:55;11.47;;;11.00;;
7587;SDS011;3835;48.850;8.938;2022-08-11T07:01:42;10.37;;;9.97;;
7587;SDS011;3835;48.850;8.938;2022-08-11T07:04:19;11.37;;;10.90;;
7587;SDS011;3835;48.850;8.938;2022-08-11T07:07:04;12.13;;;11.63;;
7587;SDS011;3835;48.850;8.938;2022-08-11T07:13:18;11.97;;;11.47;;
7587;SDS011;3835;48.850;8.938;2022-08-11T07:16:16;11.57;;;10.97;;
7587;SDS011;3835;48.850;8.938;2022-08-11T07:18:49;11.50;;;11.00;;
7587;SDS011;3835;48.850;8.938;2022-08-11T07:21:36;11.83;;;11.33;;
7587;SDS011;3835;48.850;8.938;2022-08-11T07:24:34;11.37;;;10.90;;
7587;SDS011;3835;48.850;8.938;2022-08-11T07:27:23;10.90;;;10.40;;
7587;SDS011;3835;48.850;8.938;2022-08-11T07:30:10;11.20;;;10.70;;
7587;SDS011;3835;48.850;8.938;2022-08-11T07:32:40;11.47;;;10.87;;
7587;SDS011;3835;48.850;8.938;2022-08-11T07:35:12;10.73;;;10.33;;
7587;SDS011;3835;48.850;8.938;2022-08-11T07:37:45;10.60;;;10.20;;
7587;SDS011;3835;48.850;8.938;2022-08-11T07:40:18;11.33;;;10.93;;
7587;SDS011;3835;48.850;8.938;2022-08-11T07:42:47;12.17;;;11.67;;
7587;SDS011;3835;48.850;8.938;2022-08-11T07:45:14;12.77;;;12.27;;
7587;SDS011;3835;48.850;8.938;2022-08-11T07:48:01;11.17;;;10.67;;
7587;SDS011;3835;48.850;8.938;2022-08-11T07:50:42;11.77;;;11.27;;
7587;SDS011;3835;48.850;8.938;2022-08-11T07:53:28;10.93;;;10.53;;
7587;SDS011;3835;48.850;8.938;2022-08-11T07:55:58;11.37;;;10.93;;
7587;SDS011;3835;48.850;8.938;2022-08-11T07:58:27;12.63;;;12.13;;
7587;SDS011;3835;48.850;8.938;2022-08-11T08:01:16;12.30;;;11.80;;
7587;SDS011;3835;48.850;8.938;2022-08-11T08:04:03;12.03;;;11.53;;
7587;SDS011;3835;48.850;8.938;2022-08-11T08:06:50;11.60;;;11.10;;
7587;SDS011;3835;48.850;8.938;2022-08-11T08:09:35;12.07;;;11.57;;
7587;SDS011;3835;48.850;8.938;2022-08-11T08:12:21;12.20;;;11.70;;
7587;SDS011;3835;48.850;8.938;2022-08-11T08:15:06;13.60;;;13.00;;
7587;SDS011;3835;48.850;8.938;2022-08-11T08:17:53;11.07;;;10.63;;
7587;SDS011;3835;48.850;8.938;2022-08-11T08:20:24;11.77;;;11.27;;
7587;SDS011;3835;48.850;8.938;2022-08-11T08:22:54;11.20;;;10.80;;
7587;SDS011;3835;48.850;8.938;2022-08-11T08:25:23;11.60;;;11.10;;
7587;SDS011;3835;48.850;8.938;2022-08-11T08:27:51;10.73;;;10.13;;
7587;SDS011;3835;48.850;8.938;2022-08-11T08:30:20;11.73;;;11.27;;
7587;SDS011;3835;48.850;8.938;2022-08-11T08:33:05;10.30;;;9.90;;
7587;SDS011;3835;48.850;8.938;2022-08-11T08:35:35;11.07;;;10.67;;
7587;SDS011;3835;48.850;8.938;2022-08-11T08:38:03;12.20;;;11.60;;
7587;SDS011;3835;48.850;8.938;2022-08-11T08:40:30;11.57;;;11.07;;
7587;SDS011;3835;48.850;8.938;2022-08-11T08:42:57;10.57;;;10.17;;
7587;SDS011;3835;48.850;8.938;2022-08-11T08:45:28;12.10;;;11.60;;
7587;SDS011;3835;48.850;8.938;2022-08-11T08:47:59;11.53;;;11.03;;
7587;SDS011;3835;48.850;8.938;2022-08-11T08:50:29;11.67;;;11.17;;
7587;SDS011;3835;48.850;8.938;2022-08-11T08:53:19;12.13;;;11.63;;
7587;SDS011;3835;48.850;8.938;2022-08-11T08:55:47;11.23;;;10.73;;
7587;SDS011;3835;48.850;8.938;2022-08-11T08:58:15;11.30;;;10.80;;
7587;SDS011;3835;48.850;8.938;2022-08-11T09:00:45;11.60;;;11.03;;
7587;SDS011;3835;48.850;8.938;2022-08-11T09:03:15;11.20;;;10.77;;
7587;SDS011;3835;48.850;8.938;2022-08-11T09:05:43;10.97;;;10.57;;
7587;SDS011;3835;48.850;8.938;2022-08-11T09:08:11;11.07;;;10.67;;
7587;SDS011;3835;48.850;8.938;2022-08-11T09:10:40;10.83;;;10.33;;
7587;SDS011;3835;48.850;8.938;2022-08-11T09:13:07;11.53;;;11.03;;
7587;SDS011;3835;48.850;8.938;2022-08-11T09:15:34;11.53;;;11.03;;
7587;SDS011;3835;48.850;8.938;2022-08-11T09:18:01;11.43;;;11.00;;
7587;SDS011;3835;48.850;8.938;2022-08-11T09:20:31;11.13;;;10.73;;
7587;SDS011;3835;48.850;8.938;2022-08-11T09:23:00;10.13;;;9.73;;
7587;SDS011;3835;48.850;8.938;2022-08-11T09:25:47;11.70;;;11.20;;
7587;SDS011;3835;48.850;8.938;2022-08-11T09:28:33;12.80;;;12.20;;
7587;SDS011;3835;48.850;8.938;2022-08-11T09:31:01;11.27;;;10.87;;
7587;SDS011;3835;48.850;8.938;2022-08-11T09:33:30;12.33;;;11.63;;
7587;SDS011;3835;48.850;8.938;2022-08-11T09:35:57;12.47;;;11.97;;
7587;SDS011;3835;48.850;8.938;2022-08-11T09:38:47;12.47;;;11.97;;
7587;SDS011;3835;48.850;8.938;2022-08-11T09:41:34;13.07;;;12.57;;
7587;SDS011;3835;48.850;8.938;2022-08-11T09:44:01;11.60;;;11.10;;
7587;SDS011;3835;48.850;8.938;2022-08-11T09:46:46;11.67;;;11.17;;
7587;SDS011;3835;48.850;8.938;2022-08-11T09:49:17;11.57;;;11.07;;
7587;SDS011;3835;48.850;8.938;2022-08-11T09:51:45;11.07;;;10.67;;
7587;SDS011;3835;48.850;8.938;2022-08-11T09:54:15;11.07;;;10.67;;
7587;SDS011;3835;48.850;8.938;2022-08-11T09:56:44;11.50;;;11.10;;
7587;SDS011;3835;48.850;8.938;2022-08-11T09:59:28;10.83;;;10.43;;
7587;SDS011;3835;48.850;8.938;2022-08-11T10:01:56;12.07;;;11.57;;
7587;SDS011;3835;48.850;8.938;2022-08-11T10:04:27;11.50;;;11.10;;
7587;SDS011;3835;48.850;8.938;2022-08-11T10:07:00;11.93;;;11.47;;
7587;SDS011;3835;48.850;8.938;2022-08-11T10:09:34;11.37;;;10.87;;
7587;SDS011;3835;48.850;8.938;2022-08-11T10:12:05;11.60;;;11.10;;
7587;SDS011;3835;48.850;8.938;2022-08-11T10:14:36;11.77;;;11.27;;
7587;SDS011;3835;48.850;8.938;2022-08-11T10:17:24;13.23;;;12.73;;
7587;SDS011;3835;48.850;8.938;2022-08-11T10:19:55;12.63;;;12.13;;
7587;SDS011;3835;48.850;8.938;2022-08-11T10:22:27;12.20;;;11.70;;
7587;SDS011;3835;48.850;8.938;2022-08-11T10:25:12;11.83;;;11.33;;
7587;SDS011;3835;48.850;8.938;2022-08-11T10:27:59;11.20;;;10.77;;
7587;SDS011;3835;48.850;8.938;2022-08-11T10:30:29;13.10;;;12.60;;
7587;SDS011;3835;48.850;8.938;2022-08-11T10:33:14;12.37;;;11.87;;
7587;SDS011;3835;48.850;8.938;2022-08-11T10:36:12;12.40;;;11.90;;
7587;SDS011;3835;48.850;8.938;2022-08-11T10:38:43;13.87;;;13.27;;
7587;SDS011;3835;48.850;8.938;2022-08-11T10:41:14;11.83;;;11.33;;
7587;SDS011;3835;48.850;8.938;2022-08-11T10:44:00;11.83;;;11.33;;
7587;SDS011;3835;48.850;8.938;2022-08-11T10:46:28;12.07;;;11.47;;
7587;SDS011;3835;48.850;8.938;2022-08-11T10:49:13;11.50;;;11.10;;
7587;SDS011;3835;48.850;8.938;2022-08-11T10:51:40;12.50;;;12.00;;
7587;SDS011;3835;48.850;8.938;2022-08-11T10:54:24;12.10;;;11.60;;
7587;SDS011;3835;48.850;8.938;2022-08-11T10:57:09;11.60;;;11.13;;
7587;SDS011;3835;48.850;8.938;2022-08-11T10:59:56;11.80;;;11.30;;
7587;SDS011;3835;48.850;8.938;2022-08-11T11:02:23;11.93;;;11.43;;
7587;SDS011;3835;48.850;8.938;2022-08-11T11:04:57;11.97;;;11.47;;
7587;SDS011;3835;48.850;8.938;2022-08-11T11:07:35;12.40;;;11.80;;
7587;SDS011;3835;48.850;8.938;2022-08-11T11:10:05;10.93;;;10.53;;
7587;SDS011;3835;48.850;8.938;2022-08-11T11:12:34;12.13;;;11.63;;
7587;SDS011;3835;48.850;8.938;2022-08-11T11:15:23;11.20;;;10.70;;
7587;SDS011;3835;48.850;8.938;2022-08-11T11:18:10;10.93;;;10.53;;
7587;SDS011;3835;48.850;8.938;2022-08-11T11:20:41;11.17;;;10.77;;
7587;SDS011;3835;48.850;8.938;2022-08-11T11:23:11;11.07;;;10.57;;
7587;SDS011;3835;48.850;8.938;2022-08-11T11:28:40;12.33;;;11.83;;
7587;SDS011;3835;48.850;8.938;2022-08-11T11:31:33;11.40;;;10.90;;
7587;SDS011;3835;48.850;8.938;2022-08-11T11:34:16;10.73;;;10.13;;
7587;SDS011;3835;48.850;8.938;2022-08-11T11:37:33;11.93;;;11.43;;
7587;SDS011;3835;48.850;8.938;2022-08-11T11:42:47;11.30;;;10.90;;
7587;SDS011;3835;48.850;8.938;2022-08-11T11:45:20;11.23;;;10.73;;
7587;SDS011;3835;48.850;8.938;2022-08-11T11:47:51;11.87;;;11.37;;
7587;SDS011;3835;48.850;8.938;2022-08-11T11:50:22;12.53;;;12.03;;
7587;SDS011;3835;48.850;8.938;2022-08-11T11:52:50;11.60;;;11.10;;
7587;SDS011;3835;48.850;8.938;2022-08-11T11:56:14;10.87;;;10.47;;
7587;SDS011;3835;48.850;8.938;2022-08-11T11:58:37;12.10;;;11.60;;
7587;SDS011;3835;48.850;8.938;2022-08-11T12:01:23;12.27;;;11.77;;
7587;SDS011;3835;48.850;8.938;2022-08-11T12:03:52;12.43;;;11.93;;
7587;SDS011;3835;48.850;8.938;2022-08-11T12:06:22;10.80;;;10.40;;
7587;SDS011;3835;48.850;8.938;2022-08-11T12:08:52;12.10;;;11.60;;
7587;SDS011;3835;48.850;8.938;2022-08-11T12:11:27;11.80;;;11.30;;
7587;SDS011;3835;48.850;8.938;2022-08-11T12:14:12;10.67;;;10.27;;
7587;SDS011;3835;48.850;8.938;2022-08-11T12:16:42;11.90;;;11.40;;
7587;SDS011;3835;48.850;8.938;2022-08-11T12:19:12;10.30;;;9.90;;
7587;SDS011;3835;48.850;8.938;2022-08-11T12:21:41;10.33;;;9.93;;
7587;SDS011;3835;48.850;8.938;2022-08-11T12:24:26;10.57;;;10.17;;
7587;SDS011;3835;48.850;8.938;2022-08-11T12:27:12;9.70;;;9.20;;
7587;SDS011;3835;48.850;8.938;2022-08-11T12:29:45;10.77;;;10.33;;
7587;SDS011;3835;48.850;8.938;2022-08-11T12:32:14;10.27;;;9.87;;
7587;SDS011;3835;48.850;8.938;2022-08-11T12:34:42;11.03;;;10.63;;
7587;SDS011;3835;48.850;8.938;2022-08-11T12:37:09;11.63;;;11.13;;
7587;SDS011;3835;48.850;8.938;2022-08-11T12:39:38;10.87;;;10.47;;
7587;SDS011;3835;48.850;8.938;2022-08-11T12:42:27;10.50;;;10.10;;
7587;SDS011;3835;48.850;8.938;2022-08-11T12:45:15;10.03;;;9.63;;
7587;SDS011;3835;48.850;8.938;2022-08-11T12:50:46;10.67;;;10.27;;
7587;SDS011;3835;48.850;8.938;2022-08-11T12:53:35;10.37;;;9.97;;
7587;SDS011;3835;48.850;8.938;2022-08-11T13:02:00;11.40;;;10.97;;
7587;SDS011;3835;48.850;8.938;2022-08-11T13:04:45;11.33;;;10.83;;
7587;SDS011;3835;48.850;8.938;2022-08-11T13:07:19;10.87;;;10.40;;
7587;SDS011;3835;48.850;8.938;2022-08-11T13:09:48;10.23;;;9.83;;
7587;SDS011;3835;48.850;8.938;2022-08-11T13:12:17;11.53;;;11.03;;
7587;SDS011;3835;48.850;8.938;2022-08-11T13:15:02;11.60;;;11.20;;
7587;SDS011;3835;48.850;8.938;2022-08-11T13:17:29;11.50;;;11.00;;
7587;SDS011;3835;48.850;8.938;2022-08-11T13:19:58;10.27;;;9.87;;
7587;SDS011;3835;48.850;8.938;2022-08-11T13:22:28;10.33;;;9.93;;
7587;SDS011;3835;48.850;8.938;2022-08-11T13:24:55;9.43;;;9.03;;
7587;SDS011;3835;48.850;8.938;2022-08-11T13:27:23;9.83;;;9.43;;
7587;SDS011;3835;48.850;8.938;2022-08-11T13:29:51;9.77;;;9.37;;
7587;SDS011;3835;48.850;8.938;2022-08-11T13:32:39;10.50;;;10.10;;
7587;SDS011;3835;48.850;8.938;2022-08-11T13:35:10;10.07;;;9.67;;
7587;SDS011;3835;48.850;8.938;2022-08-11T13:37:40;10.13;;;9.73;;
7587;SDS011;3835;48.850;8.938;2022-08-11T13:40:10;11.03;;;10.63;;
7587;SDS011;3835;48.850;8.938;2022-08-11T13:42:38;10.33;;;9.93;;
7587;SDS011;3835;48.850;8.938;2022-08-11T13:45:06;10.93;;;10.53;;
7587;SDS011;3835;48.850;8.938;2022-08-11T13:47:35;10.77;;;10.37;;
7587;SDS011;3835;48.850;8.938;2022-08-11T13:50:03;9.93;;;9.53;;
7587;SDS011;3835;48.850;8.938;2022-08-11T13:52:32;10.60;;;10.20;;
7587;SDS011;3835;48.850;8.938;2022-08-11T13:55:01;11.53;;;11.13;;
7587;SDS011;3835;48.850;8.938;2022-08-11T13:57:29;9.67;;;9.27;;
7587;SDS011;3835;48.850;8.938;2022-08-11T13:59:58;11.60;;;11.10;;
7587;SDS011;3835;48.850;8.938;2022-08-11T14:02:35;11.57;;;11.07;;
7587;SDS011;3835;48.850;8.938;2022-08-11T14:05:05;9.77;;;9.37;;
7587;SDS011;3835;48.850;8.938;2022-08-11T14:07:37;10.57;;;10.10;;
7587;SDS011;3835;48.850;8.938;2022-08-11T14:10:08;10.33;;;9.93;;
7587;SDS011;3835;48.850;8.938;2022-08-11T14:12:38;9.43;;;9.03;;
7587;SDS011;3835;48.850;8.938;2022-08-11T14:15:26;11.37;;;10.87;;
7587;SDS011;3835;48.850;8.938;2022-08-11T14:18:04;10.90;;;10.50;;
7587;SDS011;3835;48.850;8.938;2022-08-11T14:20:33;9.23;;;8.83;;
7587;SDS011;3835;48.850;8.938;2022-08-11T14:23:21;10.47;;;9.93;;
7587;SDS011;3835;48.850;8.938;2022-08-11T14:25:54;9.33;;;8.93;;
7587;SDS011;3835;48.850;8.938;2022-08-11T14:28:51;10.33;;;9.93;;
7587;SDS011;3835;48.850;8.938;2022-08-11T14:31:20;9.30;;;9.00;;
7587;SDS011;3835;48.850;8.938;2022-08-11T14:33:49;9.53;;;9.13;;
7587;SDS011;3835;48.850;8.938;2022-08-11T14:36:19;10.30;;;9.90;;
7587;SDS011;3835;48.850;8.938;2022-08-11T14:38:47;9.77;;;9.37;;
7587;SDS011;3835;48.850;8.938;2022-08-11T14:41:16;10.70;;;10.30;;
7587;SDS011;3835;48.850;8.938;2022-08-11T14:44:01;10.43;;;10.03;;
7587;SDS011;3835;48.850;8.938;2022-08-11T14:46:46;10.60;;;10.10;;
7587;SDS011;3835;48.850;8.938;2022-08-11T14:49:37;10.30;;;9.90;;
7587;SDS011;3835;48.850;8.938;2022-08-11T14:52:06;9.57;;;9.17;;
7587;SDS011;3835;48.850;8.938;2022-08-11T14:54:34;9.57;;;9.17;;
7587;SDS011;3835;48.850;8.938;2022-08-11T14:57:21;9.63;;;9.23;;
7587;SDS011;3835;48.850;8.938;2022-08-11T14:59:52;9.20;;;8.90;;
7587;SDS011;3835;48.850;8.938;2022-08-11T15:02:21;10.83;;;10.43;;
7587;SDS011;3835;48.850;8.938;2022-08-11T15:05:07;9.63;;;9.23;;
7587;SDS011;3835;48.850;8.938;2022-08-11T15:07:34;8.90;;;8.60;;
7587;SDS011;3835;48.850;8.938;2022-08-11T15:10:03;10.67;;;10.27;;
7587;SDS011;3835;48.850;8.938;2022-08-11T15:12:34;9.40;;;9.00;;
7587;SDS011;3835;48.850;8.938;2022-08-11T15:15:02;10.00;;;9.60;;
7587;SDS011;3835;48.850;8.938;2022-08-11T15:17:49;10.27;;;9.87;;
7587;SDS011;3835;48.850;8.938;2022-08-11T15:20:18;9.90;;;9.50;;
7587;SDS011;3835;48.850;8.938;2022-08-11T15:23:04;10.83;;;10.43;;
7587;SDS011;3835;48.850;8.938;2022-08-11T15:25:50;9.83;;;9.43;;
7587;SDS011;3835;48.850;8.938;2022-08-11T15:28:22;10.07;;;9.67;;
7587;SDS011;3835;48.850;8.938;2022-08-11T15:31:09;9.97;;;9.57;;
7587;SDS011;3835;48.850;8.938;2022-08-11T15:33:56;9.70;;;9.30;;
7587;SDS011;3835;48.850;8.938;2022-08-11T15:36:46;9.77;;;9.37;;
7587;SDS011;3835;48.850;8.938;2022-08-11T15:39:34;10.00;;;9.60;;
7587;SDS011;3835;48.850;8.938;2022-08-11T15:42:17;10.10;;;9.70;;
7587;SDS011;3835;48.850;8.938;2022-08-11T15:45:03;10.57;;;10.17;;
7587;SDS011;3835;48.850;8.938;2022-08-11T15:47:53;10.57;;;10.17;;
7587;SDS011;3835;48.850;8.938;2022-08-11T15:50:24;10.50;;;10.10;;
7587;SDS011;3835;48.850;8.938;2022-08-11T15:52:55;9.47;;;9.07;;
7587;SDS011;3835;48.850;8.938;2022-08-11T15:55:24;10.50;;;10.10;;
7587;SDS011;3835;48.850;8.938;2022-08-11T15:57:53;10.23;;;9.83;;
7587;SDS011;3835;48.850;8.938;2022-08-11T16:00:41;11.33;;;10.83;;
7587;SDS011;3835;48.850;8.938;2022-08-11T16:03:28;10.57;;;10.17;;
7587;SDS011;3835;48.850;8.938;2022-08-11T16:06:15;10.53;;;10.13;;
7587;SDS011;3835;48.850;8.938;2022-08-11T16:08:43;11.17;;;10.77;;
7587;SDS011;3835;48.850;8.938;2022-08-11T16:11:10;10.77;;;10.37;;
7587;SDS011;3835;48.850;8.938;2022-08-11T16:13:38;9.13;;;8.73;;
7587;SDS011;3835;48.850;8.938;2022-08-11T16:16:24;11.20;;;10.80;;
7587;SDS011;3835;48.850;8.938;2022-08-11T16:18:54;10.97;;;10.57;;
7587;SDS011;3835;48.850;8.938;2022-08-11T16:21:22;10.33;;;9.93;;
7587;SDS011;3835;48.850;8.938;2022-08-11T16:23:52;10.40;;;10.00;;
7587;SDS011;3835;48.850;8.938;2022-08-11T16:26:23;10.70;;;9.97;;
7587;SDS011;3835;48.850;8.938;2022-08-11T16:28:51;10.50;;;10.10;;
7587;SDS011;3835;48.850;8.938;2022-08-11T16:31:22;11.77;;;11.27;;
7587;SDS011;3835;48.850;8.938;2022-08-11T16:33:52;10.50;;;10.10;;
7587;SDS011;3835;48.850;8.938;2022-08-11T16:36:21;9.53;;;9.17;;
7587;SDS011;3835;48.850;8.938;2022-08-11T16:39:07;10.47;;;9.97;;
7587;SDS011;3835;48.850;8.938;2022-08-11T16:41:36;10.83;;;10.43;;
7587;SDS011;3835;48.850;8.938;2022-08-11T16:44:22;10.07;;;9.67;;
7587;SDS011;3835;48.850;8.938;2022-08-11T16:47:11;10.47;;;10.07;;
7587;SDS011;3835;48.850;8.938;2022-08-11T16:49:42;10.53;;;10.13;;
7587;SDS011;3835;48.850;8.938;2022-08-11T16:52:11;10.63;;;10.23;;
7587;SDS011;3835;48.850;8.938;2022-08-11T16:54:39;10.33;;;9.90;;
7587;SDS011;3835;48.850;8.938;2022-08-11T16:57:07;11.03;;;10.63;;
7587;SDS011;3835;48.850;8.938;2022-08-11T17:02:41;10.77;;;10.37;;